createdAt,value
2023-01-13T00:01:11.696Z,8.21
2023-01-13T00:04:13.848Z,8.19
2023-01-13T00:07:15.523Z,8.17
2023-01-13T00:10:17.664Z,8.17
2023-01-13T00:13:26.705Z,8.17
2023-01-13T00:16:30.090Z,8.13
2023-01-13T00:19:32.137Z,8.09
2023-01-13T00:22:35.167Z,8.09
2023-01-13T00:25:37.125Z,8.08
2023-01-13T00:28:39.345Z,8.08
2023-01-13T00:31:42.498Z,8.05
2023-01-13T00:34:44.403Z,8.05
2023-01-13T00:37:46.241Z,8.04
2023-01-13T00:40:55.648Z,8.02
2023-01-13T00:43:57.607Z,8.04
2023-01-13T00:47:01.667Z,8.01
2023-01-13T00:50:03.958Z,7.99
2023-01-13T00:53:05.904Z,7.99
2023-01-13T00:56:14.381Z,7.99
2023-01-13T00:59:16.455Z,7.99
2023-01-13T01:02:20.438Z,8.04
2023-01-13T01:05:22.572Z,8.03
2023-01-13T01:08:24.419Z,8.06
2023-01-13T01:11:31.055Z,8.07
2023-01-13T01:14:33.139Z,8.04
2023-01-13T01:17:36.743Z,8.06
2023-01-13T01:20:38.738Z,8.02
2023-01-13T01:23:43.690Z,8.07
2023-01-13T01:26:45.679Z,8.02
2023-01-13T01:29:47.566Z,8.01
2023-01-13T01:32:50.972Z,7.99
2023-01-13T01:35:53.966Z,7.94
2023-01-13T01:38:57.842Z,7.82
2023-01-13T01:42:18.353Z,7.75
2023-01-13T01:45:22.128Z,7.75
2023-01-13T01:48:31.115Z,7.74
2023-01-13T01:51:37.218Z,7.75
2023-01-13T01:54:47.595Z,7.76
2023-01-13T01:57:54.906Z,7.79
2023-01-13T02:00:57.144Z,7.76
2023-01-13T02:04:05.532Z,7.73
2023-01-13T02:07:07.937Z,7.71
2023-01-13T02:10:13.379Z,7.67
2023-01-13T02:13:15.266Z,7.67
2023-01-13T02:16:22.171Z,7.69
2023-01-13T02:19:59.931Z,7.71
2023-01-13T02:23:53.485Z,7.71
2023-01-13T02:27:29.644Z,7.69
2023-01-13T02:30:59.629Z,7.70
2023-01-13T02:34:11.296Z,7.74
2023-01-13T02:37:19.248Z,7.74
2023-01-13T02:40:25.320Z,7.71
2023-01-13T02:43:51.553Z,7.68
2023-01-13T02:46:59.652Z,7.70
2023-01-13T02:50:07.516Z,7.66
2023-01-13T02:53:16.563Z,7.62
2023-01-13T02:56:21.199Z,7.59
2023-01-13T02:59:26.681Z,7.56
2023-01-13T03:02:30.983Z,7.57
2023-01-13T03:05:33.891Z,7.60
2023-01-13T03:08:43.850Z,7.65
2023-01-13T03:11:54.099Z,7.66
2023-01-13T03:15:01.611Z,7.60
2023-01-13T03:18:12.803Z,7.60
2023-01-13T03:21:24.905Z,7.61
2023-01-13T03:24:34.373Z,7.63
2023-01-13T03:27:45.053Z,7.62
2023-01-13T03:30:53.595Z,7.57
2023-01-13T03:34:01.552Z,7.53
2023-01-13T03:37:07.016Z,7.53
2023-01-13T03:40:14.136Z,7.55
2023-01-13T03:43:38.947Z,7.52
2023-01-13T03:46:49.322Z,7.47
2023-01-13T03:49:57.347Z,7.47
2023-01-13T03:53:05.358Z,7.45
2023-01-13T03:56:12.193Z,7.39
2023-01-13T03:59:17.993Z,7.38
2023-01-13T04:02:29.577Z,7.42
2023-01-13T04:05:36.252Z,7.37
2023-01-13T04:08:45.031Z,7.23
2023-01-13T04:11:53.207Z,7.24
2023-01-13T04:14:56.368Z,7.27
2023-01-13T04:18:08.655Z,7.29
2023-01-13T04:21:11.602Z,7.27
2023-01-13T04:24:13.535Z,7.25
2023-01-13T04:27:15.541Z,7.21
2023-01-13T04:30:17.922Z,7.19
2023-01-13T04:33:20.769Z,7.17
2023-01-13T04:36:30.035Z,7.19
2023-01-13T04:39:31.845Z,7.17
2023-01-13T04:42:33.770Z,7.17
2023-01-13T04:45:35.888Z,7.18
2023-01-13T04:48:37.457Z,7.16
2023-01-13T04:51:40.982Z,7.10
2023-01-13T04:54:43.116Z,7.05
2023-01-13T04:57:45.191Z,7.07
2023-01-13T05:00:46.897Z,7.12
2023-01-13T05:03:48.781Z,7.09
2023-01-13T05:06:52.044Z,7.05
2023-01-13T05:09:53.876Z,7.05
2023-01-13T05:13:14.194Z,6.95
2023-01-13T05:16:34.418Z,6.96
2023-01-13T05:19:39.236Z,6.90
2023-01-13T05:23:01.019Z,6.86
2023-01-13T05:26:03.058Z,6.80
2023-01-13T05:29:07.590Z,6.71
2023-01-13T05:32:09.715Z,6.64
2023-01-13T05:35:11.500Z,6.61
2023-01-13T05:38:15.386Z,6.61
2023-01-13T05:41:35.721Z,6.58
2023-01-13T05:44:37.821Z,6.53
2023-01-13T05:47:39.875Z,6.50
2023-01-13T05:50:41.671Z,6.50
2023-01-13T05:53:44.752Z,6.54
2023-01-13T05:56:46.763Z,6.53
2023-01-13T05:59:48.755Z,6.50
2023-01-13T06:02:50.696Z,6.47
2023-01-13T06:05:58.540Z,6.47
2023-01-13T06:09:01.983Z,6.38
2023-01-13T06:12:07.399Z,6.41
2023-01-13T06:15:09.917Z,6.35
2023-01-13T06:18:11.982Z,6.36
2023-01-13T06:21:13.583Z,6.39
2023-01-13T06:24:16.952Z,6.35
2023-01-13T06:27:18.697Z,6.37
2023-01-13T06:30:20.746Z,6.34
2023-01-13T06:33:29.160Z,6.30
2023-01-13T06:36:35.456Z,6.36
2023-01-13T06:39:39.908Z,6.30
2023-01-13T06:43:01.384Z,6.27
2023-01-13T06:46:03.381Z,6.36
2023-01-13T06:49:05.379Z,6.36
2023-01-13T06:52:07.155Z,6.33
2023-01-13T06:55:11.450Z,6.29
2023-01-13T06:58:13.310Z,6.35
2023-01-13T07:01:15.165Z,6.34
2023-01-13T07:04:17.095Z,6.31
2023-01-13T07:07:19.639Z,6.27
2023-01-13T07:10:22.663Z,6.22
2023-01-13T07:13:42.866Z,6.27
2023-01-13T07:16:44.864Z,6.27
2023-01-13T07:19:46.938Z,6.28
2023-01-13T07:22:53.993Z,6.24
2023-01-13T07:25:58.056Z,6.26
2023-01-13T07:29:00.860Z,6.29
2023-01-13T07:32:03.022Z,6.28
2023-01-13T07:35:05.624Z,6.32
2023-01-13T07:38:08.289Z,6.32
2023-01-13T07:41:31.849Z,6.34
2023-01-13T07:44:34.496Z,6.34
2023-01-13T07:47:36.316Z,6.33
2023-01-13T07:50:38.359Z,6.35
2023-01-13T07:53:40.234Z,6.29
2023-01-13T07:56:43.452Z,6.33
2023-01-13T07:59:45.235Z,6.38
2023-01-13T08:02:47.238Z,6.36
2023-01-13T08:05:49.164Z,6.37
2023-01-13T08:08:51.296Z,6.32
2023-01-13T08:12:14.100Z,6.39
2023-01-13T08:15:16.466Z,6.41
2023-01-13T08:18:21.358Z,6.37
2023-01-13T08:21:23.066Z,6.36
2023-01-13T08:24:25.003Z,6.37
2023-01-13T08:27:28.563Z,6.35
2023-01-13T08:30:30.791Z,6.31
2023-01-13T08:33:33.388Z,6.31
2023-01-13T08:36:35.237Z,6.29
2023-01-13T08:39:37.058Z,6.31
2023-01-13T08:42:40.535Z,6.33
2023-01-13T08:45:42.714Z,6.33
2023-01-13T08:48:44.451Z,6.31
2023-01-13T08:51:46.563Z,6.32
2023-01-13T08:54:49.952Z,6.30
2023-01-13T08:57:56.100Z,6.35
2023-01-13T09:01:05.026Z,6.30
2023-01-13T09:04:08.380Z,6.30
2023-01-13T09:07:11.196Z,6.29
2023-01-13T09:10:12.948Z,6.36
2023-01-13T09:13:17.154Z,6.37
2023-01-13T09:16:18.999Z,6.36
2023-01-13T09:19:24.055Z,6.38
2023-01-13T09:22:27.271Z,6.40
2023-01-13T09:25:29.134Z,6.41
2023-01-13T09:28:33.536Z,6.45
2023-01-13T09:31:35.480Z,6.39
2023-01-13T09:34:55.827Z,6.45
2023-01-13T09:37:57.691Z,6.47
2023-01-13T09:40:59.971Z,6.40
2023-01-13T09:44:04.603Z,6.49
2023-01-13T09:47:15.190Z,6.46
2023-01-13T09:50:30.032Z,6.50
2023-01-13T09:53:37.435Z,6.50
2023-01-13T09:56:39.299Z,6.43
2023-01-13T09:59:43.005Z,6.47
2023-01-13T10:03:04.909Z,6.51
2023-01-13T10:06:15.723Z,6.46
2023-01-13T10:09:23.889Z,6.53
2023-01-13T10:12:45.256Z,6.55
2023-01-13T10:15:57.018Z,6.52
2023-01-13T10:19:06.124Z,6.53
2023-01-13T10:22:34.237Z,6.53
2023-01-13T10:25:58.839Z,6.53
2023-01-13T10:29:00.724Z,6.53
2023-01-13T10:32:04.728Z,6.53
2023-01-13T10:35:07.279Z,6.50
2023-01-13T10:38:16.662Z,6.50
2023-01-13T10:41:23.902Z,6.51
2023-01-13T10:44:25.662Z,6.50
2023-01-13T10:47:30.885Z,6.45
2023-01-13T10:50:35.498Z,6.43
2023-01-13T10:53:46.996Z,6.44
2023-01-13T10:56:50.256Z,6.45
2023-01-13T10:59:53.149Z,6.50
2023-01-13T11:03:24.766Z,6.51
2023-01-13T11:06:29.926Z,6.49
2023-01-13T11:09:33.107Z,6.49
2023-01-13T11:12:42.195Z,6.50
2023-01-13T11:15:50.276Z,6.48
2023-01-13T11:19:11.782Z,6.49
2023-01-13T11:22:19.445Z,6.51
2023-01-13T11:25:31.575Z,6.53
2023-01-13T11:28:41.132Z,6.54
2023-01-13T11:31:48.634Z,6.58
2023-01-13T11:34:57.119Z,6.57
2023-01-13T11:38:09.007Z,6.54
2023-01-13T11:41:21.114Z,6.56
2023-01-13T11:44:30.395Z,6.62
2023-01-13T11:47:33.423Z,6.59
2023-01-13T11:50:42.296Z,6.60
2023-01-13T11:54:00.216Z,6.62
2023-01-13T11:57:34.016Z,6.67
2023-01-13T12:01:05.442Z,6.68
2023-01-13T12:04:26.016Z,6.73
2023-01-13T12:07:41.165Z,6.73
2023-01-13T12:11:01.378Z,6.74
2023-01-13T12:14:16.620Z,6.75
2023-01-13T12:17:27.073Z,6.69
2023-01-13T12:20:39.443Z,6.71
2023-01-13T12:23:46.339Z,6.68
2023-01-13T12:26:53.248Z,6.66
2023-01-13T12:29:59.725Z,6.69
2023-01-13T12:33:13.015Z,6.70
2023-01-13T12:36:22.731Z,6.56
2023-01-13T12:39:37.501Z,6.66
2023-01-13T12:43:07.579Z,6.59
2023-01-13T12:46:44.641Z,6.63
2023-01-13T12:49:47.240Z,6.66
2023-01-13T12:52:49.832Z,6.64
2023-01-13T12:55:53.246Z,6.64
2023-01-13T12:59:48.648Z,6.64
2023-01-13T13:03:23.740Z,6.66
2023-01-13T13:06:31.063Z,6.52
2023-01-13T13:09:38.376Z,6.42
2023-01-13T13:13:18.253Z,6.38
2023-01-13T13:16:54.821Z,6.34
2023-01-13T13:19:58.158Z,6.29
2023-01-13T13:23:00.349Z,6.29
2023-01-13T13:26:13.019Z,6.31
2023-01-13T13:29:46.942Z,6.35
2023-01-13T13:33:10.498Z,6.38
2023-01-13T13:36:34.181Z,6.38
2023-01-13T13:39:55.301Z,6.44
2023-01-13T13:43:16.731Z,6.46
2023-01-13T13:46:48.124Z,6.30
2023-01-13T13:49:56.144Z,6.05
2023-01-13T13:53:05.272Z,5.83
2023-01-13T13:56:17.028Z,5.79
2023-01-13T13:59:21.656Z,5.67
2023-01-13T14:02:29.659Z,5.75
2023-01-13T14:05:33.672Z,5.70
2023-01-13T14:08:38.304Z,5.79
2023-01-13T14:11:41.404Z,5.83
2023-01-13T14:14:44.723Z,5.86
2023-01-13T14:17:48.266Z,5.87
2023-01-13T14:20:54.749Z,5.83
2023-01-13T14:24:00.499Z,5.80
2023-01-13T14:27:11.022Z,5.78
2023-01-13T14:30:17.429Z,5.77
2023-01-13T14:33:23.616Z,5.76
2023-01-13T14:36:36.770Z,5.75
2023-01-13T14:39:41.407Z,5.71
2023-01-13T14:42:43.278Z,5.68
2023-01-13T14:45:56.523Z,5.64
2023-01-13T14:49:01.413Z,5.59
2023-01-13T14:52:13.985Z,5.52
2023-01-13T14:55:24.249Z,5.40
2023-01-13T14:58:30.893Z,5.38
2023-01-13T15:01:36.592Z,5.29
2023-01-13T15:04:39.959Z,5.30
2023-01-13T15:07:48.752Z,5.31
2023-01-13T15:10:54.574Z,5.31
2023-01-13T15:14:01.376Z,5.32
2023-01-13T15:17:04.317Z,5.34
2023-01-13T15:20:13.914Z,5.39
2023-01-13T15:23:15.750Z,5.30
2023-01-13T15:26:20.961Z,5.35
2023-01-13T15:29:24.305Z,5.36
2023-01-13T15:32:26.206Z,5.31
2023-01-13T15:35:29.566Z,5.40
2023-01-13T15:38:31.277Z,5.38
2023-01-13T15:41:52.053Z,5.42
2023-01-13T15:45:12.334Z,5.46
2023-01-13T15:48:14.217Z,5.46
2023-01-13T15:51:17.650Z,5.44
2023-01-13T15:54:22.952Z,5.47
2023-01-13T15:57:26.442Z,5.47
2023-01-13T16:00:28.679Z,5.46
2023-01-13T16:03:30.605Z,5.36
2023-01-13T16:06:36.089Z,5.30
2023-01-13T16:09:37.870Z,5.25
2023-01-13T16:12:39.769Z,5.20
2023-01-13T16:15:43.901Z,5.20
2023-01-13T16:18:46.076Z,5.21
2023-01-13T16:21:49.274Z,5.23
2023-01-13T16:24:51.296Z,5.22
2023-01-13T16:27:54.427Z,5.27
2023-01-13T16:30:56.660Z,5.28
2023-01-13T16:33:58.888Z,5.31
2023-01-13T16:37:02.040Z,5.29
2023-01-13T16:40:04.304Z,5.26
2023-01-13T16:43:06.906Z,5.15
2023-01-13T16:46:17.627Z,5.17
2023-01-13T16:49:19.410Z,5.16
2023-01-13T16:52:22.686Z,5.16
2023-01-13T16:55:25.482Z,5.16
2023-01-13T16:58:28.176Z,5.19
2023-01-13T17:01:32.196Z,5.21
2023-01-13T17:04:34.350Z,5.15
2023-01-13T17:07:37.597Z,5.16
2023-01-13T17:10:39.412Z,5.23
2023-01-13T17:13:42.149Z,5.31
2023-01-13T17:16:44.425Z,5.34
2023-01-13T17:19:46.287Z,5.32
2023-01-13T17:22:57.696Z,5.34
2023-01-13T17:25:59.960Z,5.34
2023-01-13T17:29:02.049Z,5.28
2023-01-13T17:32:04.757Z,5.27
2023-01-13T17:35:07.740Z,5.33
2023-01-13T17:38:11.411Z,5.28
2023-01-13T17:41:13.605Z,5.27
2023-01-13T17:44:15.626Z,5.26
2023-01-13T17:47:17.791Z,5.26
2023-01-13T17:50:19.628Z,5.28
2023-01-13T17:53:22.930Z,5.25
2023-01-13T17:56:28.583Z,5.29
2023-01-13T17:59:30.521Z,5.27
2023-01-13T18:02:33.447Z,5.20
2023-01-13T18:05:36.662Z,5.25
2023-01-13T18:08:41.799Z,5.20
2023-01-13T18:11:43.909Z,5.10
2023-01-13T18:14:45.897Z,5.04
2023-01-13T18:17:48.810Z,4.98
2023-01-13T18:21:11.477Z,5.00
2023-01-13T18:24:35.277Z,5.01
2023-01-13T18:27:40.352Z,4.99
2023-01-13T18:30:42.239Z,4.99
2023-01-13T18:33:44.148Z,4.99
2023-01-13T18:36:46.103Z,4.98
2023-01-13T18:39:49.434Z,5.07
2023-01-13T18:42:51.461Z,5.13
2023-01-13T18:45:53.150Z,5.16
2023-01-13T18:48:57.099Z,5.16
2023-01-13T18:51:58.904Z,5.15
2023-01-13T18:55:02.122Z,5.17
2023-01-13T18:58:04.456Z,5.21
2023-01-13T19:01:06.966Z,5.24
2023-01-13T19:04:15.868Z,5.21
2023-01-13T19:07:23.500Z,5.24
2023-01-13T19:10:32.018Z,5.26
2023-01-13T19:13:35.564Z,5.29
2023-01-13T19:16:37.302Z,5.35
2023-01-13T19:19:40.952Z,5.40
2023-01-13T19:22:42.828Z,5.38
2023-01-13T19:25:45.973Z,5.43
2023-01-13T19:28:48.672Z,5.44
2023-01-13T19:31:52.420Z,5.47
2023-01-13T19:34:56.248Z,5.50
2023-01-13T19:37:57.974Z,5.49
2023-01-13T19:41:05.828Z,5.51
2023-01-13T19:44:29.939Z,5.53
2023-01-13T19:47:34.555Z,5.51
2023-01-13T19:50:38.665Z,5.60
2023-01-13T19:53:41.013Z,5.55
2023-01-13T19:56:44.535Z,5.58
2023-01-13T19:59:46.381Z,5.58
2023-01-13T20:02:49.551Z,5.56
2023-01-13T20:05:52.085Z,5.51
2023-01-13T20:08:54.069Z,5.49
2023-01-13T20:11:57.472Z,5.44
2023-01-13T20:14:59.303Z,5.42
2023-01-13T20:18:01.118Z,5.40
2023-01-13T20:21:03.512Z,5.31
2023-01-13T20:24:06.661Z,5.29
2023-01-13T20:27:09.887Z,5.24
2023-01-13T20:30:15.508Z,5.23
2023-01-13T20:33:17.273Z,5.20
2023-01-13T20:36:27.896Z,5.23
2023-01-13T20:39:29.765Z,5.31
2023-01-13T20:42:42.471Z,5.28
2023-01-13T20:45:44.439Z,5.31
2023-01-13T20:48:46.498Z,5.33
2023-01-13T20:51:48.395Z,5.37
2023-01-13T20:54:50.513Z,5.33
2023-01-13T20:57:53.450Z,5.32
2023-01-13T21:00:58.315Z,5.34
2023-01-13T21:04:00.620Z,5.38
2023-01-13T21:07:02.531Z,5.38
2023-01-13T21:10:05.040Z,5.41
2023-01-13T21:13:27.358Z,5.41
2023-01-13T21:16:29.265Z,5.40
2023-01-13T21:19:31.313Z,5.38
2023-01-13T21:22:33.176Z,5.22
2023-01-13T21:25:37.277Z,5.23
2023-01-13T21:28:40.611Z,5.23
2023-01-13T21:31:42.578Z,5.17
2023-01-13T21:34:44.323Z,5.18
2023-01-13T21:37:46.137Z,5.12
2023-01-13T21:40:56.129Z,5.14
2023-01-13T21:44:17.663Z,5.14
2023-01-13T21:47:38.665Z,5.13
2023-01-13T21:50:40.648Z,5.13
2023-01-13T21:53:42.398Z,5.17
2023-01-13T21:56:44.700Z,5.14
2023-01-13T21:59:49.299Z,5.21
2023-01-13T22:02:51.737Z,5.25
2023-01-13T22:05:55.714Z,5.28
2023-01-13T22:09:01.329Z,5.32
2023-01-13T22:12:06.209Z,5.33
2023-01-13T22:15:12.593Z,5.38
2023-01-13T22:18:14.426Z,5.41
2023-01-13T22:21:17.647Z,5.43
2023-01-13T22:24:19.472Z,5.40
2023-01-13T22:27:22.973Z,5.47
2023-01-13T22:30:31.749Z,5.45
2023-01-13T22:33:33.501Z,5.49
2023-01-13T22:36:35.210Z,5.44
2023-01-13T22:39:37.071Z,5.46
2023-01-13T22:42:39.526Z,5.47
2023-01-13T22:45:42.776Z,5.48
2023-01-13T22:48:46.875Z,5.47
2023-01-13T22:51:48.837Z,5.41
2023-01-13T22:54:50.681Z,5.39
2023-01-13T22:57:52.688Z,5.34
2023-01-13T23:00:56.294Z,5.29
2023-01-13T23:03:58.994Z,5.38
2023-01-13T23:07:00.985Z,5.41
2023-01-13T23:10:02.879Z,5.41
2023-01-13T23:13:04.886Z,5.42
2023-01-13T23:16:10.835Z,5.47
2023-01-13T23:19:15.298Z,5.40
2023-01-13T23:22:17.413Z,5.49
2023-01-13T23:25:18.960Z,5.50
2023-01-13T23:28:22.137Z,5.47
2023-01-13T23:31:25.263Z,5.42
2023-01-13T23:34:27.122Z,5.50
2023-01-13T23:37:29.022Z,5.51
2023-01-13T23:40:30.789Z,5.50
2023-01-13T23:43:33.105Z,5.47
2023-01-13T23:46:36.503Z,5.45
2023-01-13T23:49:38.902Z,5.43
2023-01-13T23:52:40.768Z,5.46
2023-01-13T23:55:42.647Z,5.45
2023-01-13T23:58:45.212Z,5.41
